createdAt,value
2022-10-19T00:00:12.251Z,86.74
2022-10-19T00:03:04.347Z,86.68
2022-10-19T00:05:36.349Z,86.24
2022-10-19T00:08:09.226Z,86.12
2022-10-19T00:10:43.722Z,86.03
2022-10-19T00:13:15.608Z,86.19
2022-10-19T00:15:47.680Z,86.25
2022-10-19T00:18:19.679Z,86.46
2022-10-19T00:20:51.721Z,86.55
2022-10-19T00:23:23.682Z,86.67
2022-10-19T00:25:59.643Z,86.42
2022-10-19T00:28:31.831Z,86.15
2022-10-19T00:31:07.485Z,86.05
2022-10-19T00:33:40.062Z,86.01
2022-10-19T00:36:18.892Z,86.15
2022-10-19T00:38:51.136Z,86.13
2022-10-19T00:41:24.038Z,86.46
2022-10-19T00:43:59.574Z,86.44
2022-10-19T00:46:33.671Z,86.49
2022-10-19T00:49:10.724Z,86.55
2022-10-19T00:51:47.832Z,86.18
2022-10-19T00:54:20.724Z,86.39
2022-10-19T00:56:56.290Z,86.18
2022-10-19T00:59:31.915Z,86.34
2022-10-19T01:02:06.478Z,86.49
2022-10-19T01:04:41.575Z,86.54
2022-10-19T01:07:13.955Z,86.70
2022-10-19T01:09:46.112Z,86.75
2022-10-19T01:12:31.532Z,86.62
2022-10-19T01:15:19.585Z,86.18
2022-10-19T01:18:01.106Z,86.34
2022-10-19T01:20:55.529Z,86.30
2022-10-19T01:23:57.247Z,86.24
2022-10-19T01:26:51.220Z,86.25
2022-10-19T01:29:40.570Z,86.60
2022-10-19T01:32:18.001Z,86.48
2022-10-19T01:34:56.099Z,86.50
2022-10-19T01:37:35.580Z,86.43
2022-10-19T01:40:11.949Z,86.31
2022-10-19T01:42:47.809Z,86.58
2022-10-19T01:45:28.338Z,86.64
2022-10-19T01:48:07.070Z,86.62
2022-10-19T01:50:45.227Z,86.91
2022-10-19T01:53:19.333Z,87.15
2022-10-19T01:55:54.233Z,87.01
2022-10-19T01:58:30.035Z,86.59
2022-10-19T02:01:06.494Z,86.48
2022-10-19T02:03:40.663Z,86.54
2022-10-19T02:06:15.113Z,86.62
2022-10-19T02:08:49.754Z,86.72
2022-10-19T02:11:23.282Z,86.91
2022-10-19T02:14:02.187Z,86.88
2022-10-19T02:16:40.051Z,86.86
2022-10-19T02:19:14.562Z,86.90
2022-10-19T02:21:46.827Z,86.59
2022-10-19T02:24:19.139Z,86.51
2022-10-19T02:26:51.431Z,86.64
2022-10-19T02:29:23.747Z,86.75
2022-10-19T02:31:55.894Z,86.90
2022-10-19T02:34:28.569Z,86.77
2022-10-19T02:37:00.810Z,86.90
2022-10-19T02:39:33.136Z,87.08
2022-10-19T02:42:11.175Z,87.19
2022-10-19T02:44:48.640Z,86.96
2022-10-19T02:47:23.702Z,86.58
2022-10-19T02:49:56.037Z,86.40
2022-10-19T02:52:28.083Z,86.38
2022-10-19T02:55:00.125Z,86.39
2022-10-19T02:57:32.793Z,86.53
2022-10-19T03:00:06.133Z,86.90
2022-10-19T03:02:38.228Z,86.78
2022-10-19T03:05:11.647Z,86.76
2022-10-19T03:07:43.575Z,86.62
2022-10-19T03:10:15.559Z,86.44
2022-10-19T03:12:47.548Z,86.13
2022-10-19T03:15:20.681Z,86.21
2022-10-19T03:17:55.648Z,86.15
2022-10-19T03:20:27.611Z,86.24
2022-10-19T03:22:59.630Z,86.43
2022-10-19T03:25:31.603Z,86.60
2022-10-19T03:28:03.797Z,86.65
2022-10-19T03:30:35.760Z,86.43
2022-10-19T03:33:07.750Z,86.34
2022-10-19T03:35:39.698Z,86.21
2022-10-19T03:38:11.675Z,86.34
2022-10-19T03:40:43.893Z,86.33
2022-10-19T03:43:15.794Z,86.62
2022-10-19T03:45:50.038Z,86.69
2022-10-19T03:48:22.103Z,86.96
2022-10-19T03:51:02.153Z,87.08
2022-10-19T03:53:34.423Z,86.89
2022-10-19T03:56:09.318Z,87.06
2022-10-19T03:58:40.409Z,86.57
2022-10-19T04:01:14.829Z,86.75
2022-10-19T04:03:46.935Z,86.83
2022-10-19T04:06:22.123Z,86.67
2022-10-19T04:08:54.494Z,86.68
2022-10-19T04:11:28.644Z,86.84
2022-10-19T04:14:01.937Z,86.91
2022-10-19T04:16:34.593Z,87.05
2022-10-19T04:19:06.579Z,87.10
2022-10-19T04:21:40.543Z,87.24
2022-10-19T04:24:14.503Z,86.79
2022-10-19T04:26:48.514Z,86.80
2022-10-19T04:29:24.969Z,86.79
2022-10-19T04:32:00.101Z,86.87
2022-10-19T04:34:35.167Z,86.85
2022-10-19T04:37:09.648Z,87.15
2022-10-19T04:39:43.479Z,87.09
2022-10-19T04:42:15.373Z,87.20
2022-10-19T04:44:47.280Z,87.24
2022-10-19T04:47:19.218Z,86.83
2022-10-19T04:49:51.217Z,86.94
2022-10-19T04:52:23.156Z,86.73
2022-10-19T04:54:55.163Z,86.84
2022-10-19T04:57:27.073Z,86.77
2022-10-19T04:59:59.067Z,87.11
2022-10-19T05:02:30.974Z,87.27
2022-10-19T05:05:03.014Z,87.11
2022-10-19T05:07:35.302Z,87.17
2022-10-19T05:10:09.684Z,86.81
2022-10-19T05:12:41.657Z,86.80
2022-10-19T05:15:14.094Z,86.82
2022-10-19T05:17:46.081Z,86.84
2022-10-19T05:20:18.070Z,86.89
2022-10-19T05:22:50.021Z,87.01
2022-10-19T05:25:21.983Z,87.18
2022-10-19T05:27:56.802Z,87.30
2022-10-19T05:30:27.212Z,87.41
2022-10-19T05:32:59.129Z,87.67
2022-10-19T05:35:31.162Z,87.58
2022-10-19T05:38:03.099Z,87.31
2022-10-19T05:40:35.190Z,87.46
2022-10-19T05:43:07.102Z,87.52
2022-10-19T05:45:39.053Z,87.34
2022-10-19T05:48:10.937Z,87.56
2022-10-19T05:50:53.178Z,87.63
2022-10-19T05:53:25.262Z,87.58
2022-10-19T05:55:57.266Z,87.60
2022-10-19T05:58:29.177Z,87.87
2022-10-19T06:01:02.909Z,88.11
2022-10-19T06:03:35.295Z,88.14
2022-10-19T06:06:08.994Z,87.92
2022-10-19T06:08:41.467Z,87.74
2022-10-19T06:11:15.697Z,87.78
2022-10-19T06:13:50.469Z,87.78
2022-10-19T06:16:21.215Z,87.83
2022-10-19T06:18:53.365Z,88.07
2022-10-19T06:21:27.875Z,88.40
2022-10-19T06:24:01.653Z,88.31
2022-10-19T06:26:35.082Z,88.28
2022-10-19T06:29:07.672Z,88.01
2022-10-19T06:31:39.714Z,88.06
2022-10-19T06:34:11.729Z,88.23
2022-10-19T06:36:43.743Z,88.03
2022-10-19T06:39:15.640Z,88.16
2022-10-19T06:41:47.582Z,88.14
2022-10-19T06:44:30.135Z,88.32
2022-10-19T06:47:02.200Z,88.47
2022-10-19T06:49:35.950Z,88.61
2022-10-19T06:52:08.386Z,88.68
2022-10-19T06:54:40.322Z,88.18
2022-10-19T06:57:12.394Z,88.16
2022-10-19T06:59:44.342Z,88.18
2022-10-19T07:02:16.713Z,88.42
2022-10-19T07:04:48.670Z,88.49
2022-10-19T07:07:20.711Z,88.47
2022-10-19T07:09:53.635Z,88.72
2022-10-19T07:12:25.662Z,88.70
2022-10-19T07:14:58.231Z,88.60
2022-10-19T07:17:30.272Z,88.33
2022-10-19T07:20:02.169Z,88.28
2022-10-19T07:22:34.263Z,88.29
2022-10-19T07:25:06.891Z,88.16
2022-10-19T07:27:40.670Z,88.31
2022-10-19T07:30:13.527Z,88.45
2022-10-19T07:32:47.115Z,88.46
2022-10-19T07:35:19.469Z,88.52
2022-10-19T07:37:51.426Z,88.35
2022-10-19T07:40:23.437Z,88.57
2022-10-19T07:42:55.518Z,88.11
2022-10-19T07:45:27.521Z,87.90
2022-10-19T07:47:59.883Z,87.99
2022-10-19T07:50:31.851Z,88.02
2022-10-19T07:53:05.411Z,88.22
2022-10-19T07:55:37.998Z,88.27
2022-10-19T07:58:09.935Z,88.53
2022-10-19T08:00:41.900Z,88.81
2022-10-19T08:06:07.847Z,88.71
2022-10-19T08:08:40.840Z,88.44
2022-10-19T08:11:14.717Z,87.90
2022-10-19T08:13:47.091Z,87.66
2022-10-19T08:16:27.449Z,87.87
2022-10-19T08:19:02.419Z,87.62
2022-10-19T08:21:34.905Z,88.10
2022-10-19T08:24:07.732Z,88.46
2022-10-19T08:26:40.700Z,88.59
2022-10-19T08:29:15.063Z,88.62
2022-10-19T08:31:48.501Z,88.43
2022-10-19T08:34:20.424Z,88.34
2022-10-19T08:36:52.338Z,88.36
2022-10-19T08:39:24.331Z,88.27
2022-10-19T08:42:03.478Z,88.50
2022-10-19T08:45:04.055Z,88.56
2022-10-19T08:47:55.098Z,88.64
2022-10-19T08:50:31.809Z,88.79
2022-10-19T08:53:06.279Z,88.63
2022-10-19T08:55:54.034Z,88.37
2022-10-19T08:58:37.487Z,88.14
2022-10-19T09:01:16.494Z,87.98
2022-10-19T09:03:56.326Z,88.07
2022-10-19T09:06:35.550Z,88.54
2022-10-19T09:09:11.538Z,88.26
2022-10-19T09:11:47.500Z,88.28
2022-10-19T09:14:24.467Z,88.78
2022-10-19T09:17:01.111Z,88.87
2022-10-19T09:19:33.549Z,88.66
2022-10-19T09:22:08.938Z,88.65
2022-10-19T09:24:48.694Z,88.35
2022-10-19T09:27:24.407Z,87.08
2022-10-19T09:29:59.496Z,86.59
2022-10-19T09:32:36.601Z,86.91
2022-10-19T09:35:19.500Z,86.34
2022-10-19T09:37:52.674Z,86.20
2022-10-19T09:40:27.726Z,86.35
2022-10-19T09:43:08.699Z,86.29
2022-10-19T09:45:47.349Z,86.20
2022-10-19T09:48:27.830Z,86.09
2022-10-19T09:51:02.299Z,84.89
2022-10-19T09:53:34.324Z,83.78
2022-10-19T09:56:18.494Z,83.95
2022-10-19T09:58:53.300Z,83.85
2022-10-19T10:01:40.226Z,83.86
2022-10-19T10:04:17.814Z,84.23
2022-10-19T10:06:49.437Z,83.63
2022-10-19T10:09:27.335Z,82.71
2022-10-19T10:12:01.062Z,83.17
2022-10-19T10:14:36.485Z,82.89
2022-10-19T10:17:15.696Z,82.43
2022-10-19T10:20:06.810Z,82.25
2022-10-19T10:22:39.349Z,82.09
2022-10-19T10:25:20.342Z,81.94
2022-10-19T10:28:01.592Z,81.42
2022-10-19T10:30:38.063Z,81.43
2022-10-19T10:33:33.186Z,81.61
2022-10-19T10:36:11.094Z,81.44
2022-10-19T10:38:47.415Z,81.09
2022-10-19T10:41:24.136Z,80.73
2022-10-19T10:44:00.985Z,80.44
2022-10-19T10:46:43.795Z,80.07
2022-10-19T10:49:25.050Z,78.97
2022-10-19T10:51:59.541Z,79.26
2022-10-19T10:54:32.962Z,79.19
2022-10-19T10:57:16.914Z,78.49
2022-10-19T10:59:56.073Z,78.14
2022-10-19T11:02:40.386Z,77.72
2022-10-19T11:05:20.752Z,77.55
2022-10-19T11:07:57.795Z,77.28
2022-10-19T11:10:34.343Z,77.13
2022-10-19T11:13:15.602Z,77.14
2022-10-19T11:15:54.845Z,77.10
2022-10-19T11:18:31.408Z,77.19
2022-10-19T11:21:12.207Z,76.98
2022-10-19T11:23:56.339Z,76.73
2022-10-19T11:26:43.106Z,76.52
2022-10-19T11:29:28.623Z,76.49
2022-10-19T11:32:00.917Z,76.12
2022-10-19T11:34:46.101Z,75.99
2022-10-19T11:37:21.453Z,76.11
2022-10-19T11:40:06.362Z,76.22
2022-10-19T11:42:52.343Z,76.20
2022-10-19T11:45:36.346Z,76.37
2022-10-19T11:48:35.149Z,75.68
2022-10-19T11:51:21.660Z,75.87
2022-10-19T11:54:11.176Z,75.79
2022-10-19T11:57:02.888Z,75.95
2022-10-19T11:59:44.261Z,75.30
2022-10-19T12:02:43.022Z,74.28
2022-10-19T12:05:18.674Z,74.32
2022-10-19T12:08:03.814Z,74.22
2022-10-19T12:10:39.389Z,74.25
2022-10-19T12:13:16.900Z,74.35
2022-10-19T12:15:53.807Z,74.34
2022-10-19T12:18:32.690Z,74.24
2022-10-19T12:21:09.575Z,73.97
2022-10-19T12:23:46.852Z,73.86
2022-10-19T12:26:22.360Z,73.72
2022-10-19T12:28:59.615Z,73.77
2022-10-19T12:31:32.781Z,73.82
2022-10-19T12:34:11.279Z,73.86
2022-10-19T12:36:49.073Z,73.82
2022-10-19T12:39:29.575Z,73.78
2022-10-19T12:42:10.797Z,73.77
2022-10-19T12:45:12.073Z,73.83
2022-10-19T12:48:25.985Z,73.94
2022-10-19T12:51:19.009Z,73.92
2022-10-19T12:53:51.850Z,73.99
2022-10-19T12:56:25.721Z,73.86
2022-10-19T12:59:01.590Z,73.77
2022-10-19T13:01:45.510Z,73.67
2022-10-19T13:04:20.573Z,73.55
2022-10-19T13:07:01.527Z,73.58
2022-10-19T13:09:36.892Z,73.47
2022-10-19T13:12:30.368Z,73.26
2022-10-19T13:15:03.857Z,73.04
2022-10-19T13:17:46.385Z,72.92
2022-10-19T13:20:54.604Z,72.87
2022-10-19T13:23:43.050Z,72.89
2022-10-19T13:26:34.373Z,72.57
2022-10-19T13:29:25.204Z,72.31
2022-10-19T13:32:17.202Z,72.20
2022-10-19T13:34:50.180Z,71.84
2022-10-19T13:37:22.607Z,71.72
2022-10-19T13:39:55.361Z,71.43
2022-10-19T13:42:29.363Z,71.21
2022-10-19T13:45:01.333Z,71.11
2022-10-19T13:47:40.656Z,70.64
2022-10-19T13:50:36.085Z,70.47
2022-10-19T13:53:33.300Z,70.43
2022-10-19T13:56:33.917Z,70.30
2022-10-19T13:59:33.502Z,70.26
2022-10-19T14:02:32.435Z,70.27
2022-10-19T14:05:21.541Z,70.05
2022-10-19T14:08:05.094Z,69.95
2022-10-19T14:11:00.039Z,69.96
2022-10-19T14:13:30.673Z,69.84
2022-10-19T14:16:03.208Z,69.89
2022-10-19T14:18:37.679Z,69.86
2022-10-19T14:21:11.442Z,69.72
2022-10-19T14:23:43.578Z,69.39
2022-10-19T14:26:20.669Z,69.27
2022-10-19T14:28:57.710Z,69.16
2022-10-19T14:31:35.741Z,69.11
2022-10-19T14:34:10.462Z,69.13
2022-10-19T14:36:44.725Z,69.22
2022-10-19T14:39:29.767Z,68.90
2022-10-19T14:42:06.919Z,68.92
2022-10-19T14:44:42.307Z,68.71
2022-10-19T14:47:21.921Z,68.09
2022-10-19T14:49:54.521Z,68.39
2022-10-19T14:52:34.075Z,68.06
2022-10-19T14:55:12.766Z,68.19
2022-10-19T14:57:49.499Z,68.22
2022-10-19T15:03:06.301Z,68.28
2022-10-19T15:05:42.673Z,68.07
2022-10-19T15:08:24.508Z,67.98
2022-10-19T15:10:57.009Z,68.03
2022-10-19T15:13:32.857Z,67.89
2022-10-19T15:16:05.115Z,67.85
2022-10-19T15:18:49.222Z,67.96
2022-10-19T15:21:23.319Z,67.77
2022-10-19T15:23:55.529Z,67.85
2022-10-19T15:26:32.461Z,67.80
2022-10-19T15:29:20.679Z,67.87
2022-10-19T15:31:56.554Z,67.71
2022-10-19T15:34:31.013Z,67.88
2022-10-19T15:37:04.000Z,67.67
2022-10-19T15:39:42.137Z,67.63
2022-10-19T15:42:40.556Z,67.74
2022-10-19T15:45:34.355Z,67.61
2022-10-19T15:48:27.529Z,67.65
2022-10-19T15:50:59.740Z,67.44
2022-10-19T15:53:31.678Z,67.52
2022-10-19T15:58:40.565Z,67.38
2022-10-19T16:01:16.968Z,67.35
2022-10-19T16:03:50.058Z,67.28
2022-10-19T16:06:24.462Z,67.51
2022-10-19T16:08:56.628Z,67.31
2022-10-19T16:11:30.187Z,67.15
2022-10-19T16:14:02.260Z,67.34
2022-10-19T16:16:35.214Z,67.31
2022-10-19T16:19:07.264Z,67.20
2022-10-19T16:21:39.294Z,67.07
2022-10-19T16:24:12.412Z,66.94
2022-10-19T16:26:44.329Z,66.96
2022-10-19T16:29:16.300Z,67.00
2022-10-19T16:31:48.214Z,66.96
2022-10-19T16:34:20.250Z,67.15
2022-10-19T16:36:52.216Z,67.10
2022-10-19T16:39:25.661Z,67.23
2022-10-19T16:41:57.587Z,67.21
2022-10-19T16:44:29.653Z,67.22
2022-10-19T16:47:02.160Z,67.21
2022-10-19T16:49:34.231Z,67.09
2022-10-19T16:52:06.573Z,67.15
2022-10-19T16:54:38.748Z,67.17
2022-10-19T16:57:10.715Z,67.03
2022-10-19T16:59:42.704Z,66.91
2022-10-19T17:02:15.065Z,67.12
2022-10-19T17:04:47.208Z,67.01
2022-10-19T17:07:19.639Z,67.00
2022-10-19T17:09:56.752Z,67.11
2022-10-19T17:12:28.808Z,67.04
2022-10-19T17:15:29.854Z,67.02
2022-10-19T17:17:52.600Z,66.99
2022-10-19T17:20:24.590Z,66.88
2022-10-19T17:22:56.498Z,66.65
2022-10-19T17:25:28.631Z,66.75
2022-10-19T17:28:00.618Z,66.69
2022-10-19T17:30:32.646Z,66.92
2022-10-19T17:33:04.539Z,66.85
2022-10-19T17:35:37.935Z,66.93
2022-10-19T17:38:10.233Z,66.99
2022-10-19T17:40:42.240Z,66.96
2022-10-19T17:43:14.406Z,67.04
2022-10-19T17:45:46.318Z,67.01
2022-10-19T17:48:19.128Z,66.82
2022-10-19T17:51:00.732Z,66.89
2022-10-19T17:53:34.055Z,66.93
2022-10-19T17:56:08.233Z,66.80
2022-10-19T17:58:40.470Z,66.79
2022-10-19T18:01:13.714Z,66.93
2022-10-19T18:03:45.979Z,66.84
2022-10-19T18:06:22.177Z,66.91
2022-10-19T18:08:56.033Z,66.62
2022-10-19T18:11:29.998Z,66.57
2022-10-19T18:14:03.160Z,66.67
2022-10-19T18:16:37.256Z,66.89
2022-10-19T18:19:09.775Z,66.91
2022-10-19T18:21:44.064Z,66.96
2022-10-19T18:24:20.125Z,67.07
2022-10-19T18:26:53.292Z,67.02
2022-10-19T18:29:27.156Z,67.06
2022-10-19T18:31:59.259Z,67.11
2022-10-19T18:34:31.425Z,67.10
2022-10-19T18:37:03.449Z,67.06
2022-10-19T18:39:36.235Z,67.01
2022-10-19T18:42:08.238Z,66.93
2022-10-19T18:44:40.321Z,66.97
2022-10-19T18:47:12.685Z,66.83
2022-10-19T18:49:44.632Z,66.99
2022-10-19T18:52:16.595Z,66.87
2022-10-19T18:54:48.522Z,67.04
2022-10-19T18:57:20.511Z,67.24
2022-10-19T18:59:52.474Z,67.33
2022-10-19T19:02:34.933Z,67.18
2022-10-19T19:05:14.542Z,67.26
2022-10-19T19:07:46.503Z,67.26
2022-10-19T19:10:18.970Z,67.18
2022-10-19T19:12:52.182Z,67.46
2022-10-19T19:15:24.075Z,67.52
2022-10-19T19:17:57.777Z,67.46
2022-10-19T19:20:29.762Z,67.27
2022-10-19T19:23:01.885Z,67.00
2022-10-19T19:25:33.826Z,66.97
2022-10-19T19:28:05.791Z,66.98
2022-10-19T19:30:42.998Z,67.23
2022-10-19T19:33:15.523Z,67.26
2022-10-19T19:35:48.637Z,67.30
2022-10-19T19:38:20.765Z,67.22
2022-10-19T19:40:52.710Z,67.23
2022-10-19T19:43:24.766Z,67.45
2022-10-19T19:46:04.615Z,67.48
2022-10-19T19:48:40.738Z,67.36
2022-10-19T19:51:14.478Z,67.39
2022-10-19T19:53:47.262Z,67.58
2022-10-19T19:56:20.721Z,67.12
2022-10-19T19:58:57.052Z,67.18
2022-10-19T20:01:29.379Z,67.30
2022-10-19T20:06:41.499Z,67.42
2022-10-19T20:09:13.500Z,67.50
2022-10-19T20:11:46.754Z,67.57
2022-10-19T20:14:18.887Z,67.30
2022-10-19T20:16:51.169Z,67.54
2022-10-19T20:19:23.180Z,67.28
2022-10-19T20:21:56.404Z,67.41
2022-10-19T20:24:28.481Z,67.38
2022-10-19T20:27:00.455Z,67.39
2022-10-19T20:29:32.560Z,67.24
2022-10-19T20:32:04.505Z,67.21
2022-10-19T20:34:37.468Z,67.19
2022-10-19T20:37:10.254Z,67.55
2022-10-19T20:39:42.176Z,67.53
2022-10-19T20:42:14.260Z,67.72
2022-10-19T20:44:46.622Z,67.53
2022-10-19T20:47:18.562Z,67.58
2022-10-19T20:49:50.671Z,67.49
2022-10-19T20:52:22.688Z,67.46
2022-10-19T20:54:54.655Z,67.56
2022-10-19T20:57:26.658Z,67.63
2022-10-19T20:59:58.624Z,67.53
2022-10-19T21:02:30.556Z,67.60
2022-10-19T21:05:02.552Z,67.46
2022-10-19T21:07:34.480Z,67.61
2022-10-19T21:10:07.191Z,67.67
2022-10-19T21:12:39.152Z,67.74
2022-10-19T21:15:12.582Z,67.90
2022-10-19T21:17:44.539Z,67.87
2022-10-19T21:20:16.740Z,67.79
2022-10-19T21:22:48.679Z,68.05
2022-10-19T21:25:20.734Z,67.66
2022-10-19T21:27:55.565Z,67.95
2022-10-19T21:30:28.034Z,67.90
2022-10-19T21:32:59.960Z,67.43
2022-10-19T21:35:31.963Z,67.78
2022-10-19T21:38:03.894Z,67.83
2022-10-19T21:40:37.796Z,67.80
2022-10-19T21:43:11.401Z,68.20
2022-10-19T21:45:43.397Z,68.07
2022-10-19T21:48:15.451Z,68.11
2022-10-19T21:50:47.459Z,68.04
2022-10-19T21:53:23.660Z,68.02
2022-10-19T21:55:56.352Z,68.13
2022-10-19T21:58:29.054Z,68.11
2022-10-19T22:01:08.709Z,67.90
2022-10-19T22:03:40.893Z,67.97
2022-10-19T22:06:14.121Z,67.97
2022-10-19T22:08:49.306Z,68.11
2022-10-19T22:11:21.737Z,68.12
2022-10-19T22:13:56.926Z,68.20
2022-10-19T22:16:30.474Z,68.36
2022-10-19T22:19:02.463Z,68.34
2022-10-19T22:21:35.713Z,68.27
2022-10-19T22:24:10.865Z,68.27
2022-10-19T22:26:44.944Z,68.43
2022-10-19T22:29:17.015Z,68.26
2022-10-19T22:31:49.065Z,68.25
2022-10-19T22:34:21.221Z,68.30
2022-10-19T22:36:53.503Z,68.26
2022-10-19T22:39:27.792Z,68.37
2022-10-19T22:42:52.950Z,68.46
2022-10-19T22:45:39.938Z,68.51
2022-10-19T22:48:12.014Z,68.58
2022-10-19T22:50:44.560Z,68.58
2022-10-19T22:53:16.485Z,68.51
2022-10-19T22:55:48.450Z,68.46
2022-10-19T22:58:20.765Z,68.40
2022-10-19T23:01:03.600Z,68.47
2022-10-19T23:03:36.314Z,68.56
2022-10-19T23:06:09.430Z,68.60
2022-10-19T23:08:41.912Z,68.48
2022-10-19T23:11:14.468Z,68.38
2022-10-19T23:13:46.403Z,68.49
2022-10-19T23:16:18.404Z,68.58
2022-10-19T23:18:50.474Z,68.62
2022-10-19T23:21:22.602Z,68.69
2022-10-19T23:23:54.750Z,68.63
2022-10-19T23:26:27.036Z,68.45
2022-10-19T23:28:58.911Z,68.29
2022-10-19T23:31:31.238Z,68.57
2022-10-19T23:34:03.165Z,68.56
2022-10-19T23:36:35.107Z,68.63
2022-10-19T23:39:07.780Z,68.83
2022-10-19T23:41:39.706Z,68.71
2022-10-19T23:44:12.084Z,68.82
2022-10-19T23:46:44.115Z,68.77
2022-10-19T23:49:16.445Z,68.70
2022-10-19T23:51:48.461Z,68.80
2022-10-19T23:54:20.370Z,68.71
2022-10-19T23:56:52.370Z,68.72
2022-10-19T23:59:24.642Z,68.44
